Current | Forecast
Updated: 6:30 AM MSK on September 20, 2017
Observed at Rostov Na-Donu, Russia
Temperature 61°F
Humidity 68%
Dew Point 50°F
Wind ENE at 4 mph
Pressure 29.98 in (Steady)
Conditions Clear
Visibility -
UV N/A
Clouds
Yesterday's Maximum 91°F
Yesterday's Minimum 61°F approx.
Yesterday's Cooling Degree Days 11 approx.
Sunrise6:04 AM MSK
Sunset6:22 PM MSK
Moon Rise5:55 AM MSK
Moon Set6:45 PM MSK
Moon PhaseMoon Phase
Waning Crescent
Raw METARMETAR URRR 200330Z 06002MPS CAVOK 16/10 Q1015 R04/CLRD70 NOSIG RMK QFE754/1006


Monday
. High: 66° F.
Tuesday
. High: 59° F.
Wednesday
. High: 59° F.
Thursday
. High: 57° F.
Friday
. High: 60° F.
Saturday
. High: 68° F.
Sunday
. High: 59° F.
Monday
. High: 68° F.

Units: English | Metric

Find the Weather for any City, State or Zipcode, or Country:

U.S. State List | Severe Weather | Tropical Storms | Ski Conditions
United States | Canada | Central America | South America | Asia | Europe | Australia | Africa | Islands

Weather Underground

© Copyright 2017
The Weather Company, LLC